Time;durP1;ratioP1;P1;durP2;ratioP2;P2;SDS_P1;SDS_P2;PMS_P1;PMS_P2;Temp;Humidity;BMP_temperature;BMP_pressure;BME280_temperature;BME280_humidity;BME280_pressure;Samples;Min_cycle;Max_cycle;Signal;HPM_P1;HPM_P2
2022/07/02 00:00:20;;;;;;;11.68;7.97;;;;;;;25.41;93.35;99410.88;5112711;28;20217;-56
2022/07/02 00:02:53;;;;;;;9.38;7.15;;;;;;;25.42;93.14;99417.03;5112836;28;20285;-56
2022/07/02 00:05:23;;;;;;;8.18;7.38;;;;;;;25.41;93.10;99418.84;5111992;28;20316;-56
2022/07/02 00:07:51;;;;;;;8.50;7.55;;;;;;;25.33;93.69;99416.88;5112510;28;20199;-55
2022/07/02 00:10:20;;;;;;;8.77;7.30;;;;;;;25.35;93.66;99419.41;5112713;28;20199;-55
2022/07/02 00:12:47;;;;;;;8.48;7.65;;;;;;;25.39;93.44;99417.31;5112636;28;20588;-55
2022/07/02 00:15:16;;;;;;;8.05;7.30;;;;;;;25.42;93.28;99425.84;5112156;28;20234;-55
2022/07/02 00:17:43;;;;;;;8.23;7.53;;;;;;;25.49;92.31;99431.44;5110858;28;20195;-55
2022/07/02 00:20:11;;;;;;;10.23;9.38;;;;;;;25.52;91.83;99426.66;5112414;28;20213;-55
2022/07/02 00:22:40;;;;;;;11.05;9.23;;;;;;;25.40;92.45;99433.09;5112398;28;20246;-55
2022/07/02 00:25:08;;;;;;;10.40;9.18;;;;;;;25.34;93.41;99439.00;5112390;28;20749;-55
2022/07/02 00:27:41;;;;;;;8.55;7.80;;;;;;;25.24;93.80;99433.69;5112184;28;20200;-55
2022/07/02 00:30:09;;;;;;;8.40;7.57;;;;;;;25.18;94.81;99428.91;5112213;28;20273;-55
2022/07/02 00:32:37;;;;;;;8.60;7.50;;;;;;;25.14;95.61;99427.53;5112307;28;20613;-55
2022/07/02 00:35:08;;;;;;;7.95;7.20;;;;;;;25.21;95.48;99428.63;5112115;28;20205;-55
2022/07/02 00:37:35;;;;;;;8.50;7.90;;;;;;;25.25;95.23;99426.53;5111999;28;20195;-55
2022/07/02 00:40:02;;;;;;;9.20;8.40;;;;;;;25.29;95.05;99430.59;5111951;28;20222;-55
2022/07/02 00:42:31;;;;;;;9.60;8.65;;;;;;;25.22;95.10;99426.81;5111871;28;20241;-57
2022/07/02 00:45:01;;;;;;;7.97;7.53;;;;;;;25.08;94.98;99435.19;5111797;28;20229;-56
2022/07/02 00:47:29;;;;;;;8.32;7.60;;;;;;;24.99;95.54;99428.06;5111910;28;20209;-56
2022/07/02 00:49:57;;;;;;;8.52;7.75;;;;;;;24.87;96.55;99425.47;5111937;28;20677;-55
2022/07/02 00:52:23;;;;;;;8.10;7.40;;;;;;;24.78;98.36;99422.81;5111830;28;20195;-55
2022/07/02 00:54:50;;;;;;;10.68;7.88;;;;;;;24.75;99.19;99434.53;5111871;28;20726;-56
2022/07/02 00:57:18;;;;;;;8.80;8.10;;;;;;;24.67;100.00;99431.72;5111526;28;20191;-55
2022/07/02 00:59:45;;;;;;;8.18;7.50;;;;;;;24.59;100.00;99429.75;5111963;28;20220;-54
2022/07/02 01:02:16;;;;;;;9.27;8.48;;;;;;;24.59;100.00;99435.06;5111573;28;20208;-55
2022/07/02 01:04:45;;;;;;;8.70;7.90;;;;;;;24.56;100.00;99432.69;5111570;28;20763;-56
2022/07/02 01:07:13;;;;;;;9.23;8.40;;;;;;;24.54;100.00;99437.28;5111585;28;20592;-56
2022/07/02 01:12:27;;;;;;;9.80;7.93;;;;;;;24.63;97.78;99430.31;5111475;28;20692;-56
2022/07/02 01:14:56;;;;;;;8.85;8.07;;;;;;;24.66;95.68;99426.56;5111367;28;20688;-55
2022/07/02 01:17:24;;;;;;;10.00;9.07;;;;;;;24.56;94.41;99421.22;5110490;28;20674;-56
2022/07/02 01:19:51;;;;;;;9.45;8.73;;;;;;;24.69;92.37;99423.63;5111359;28;20201;-56
2022/07/02 01:22:21;;;;;;;10.63;9.63;;;;;;;24.75;89.80;99409.81;5111057;28;20582;-56
2022/07/02 01:24:50;;;;;;;10.38;9.55;;;;;;;24.89;89.74;99428.00;5110907;28;20190;-55
2022/07/02 01:27:18;;;;;;;10.32;9.18;;;;;;;24.84;92.28;99431.06;5111187;28;20220;-56
2022/07/02 01:29:45;;;;;;;10.70;9.60;;;;;;;24.85;92.53;99422.13;5111148;28;20198;-55
2022/07/02 01:32:13;;;;;;;10.57;9.70;;;;;;;24.87;93.29;99435.25;5110927;28;20285;-57
2022/07/02 01:34:41;;;;;;;13.73;9.32;;;;;;;24.87;93.88;99436.09;5110896;28;20257;-56
2022/07/02 01:37:10;;;;;;;9.95;9.02;;;;;;;24.89;94.01;99438.63;5110786;28;20195;-57
2022/07/02 01:39:39;;;;;;;11.30;10.50;;;;;;;24.92;93.98;99439.25;5110833;28;20194;-56
2022/07/02 01:42:07;;;;;;;9.65;8.95;;;;;;;24.83;94.78;99431.22;5110812;28;20194;-57
2022/07/02 01:44:35;;;;;;;11.18;10.18;;;;;;;24.92;94.54;99431.28;5110786;28;20199;-56
2022/07/02 01:47:04;;;;;;;11.95;11.00;;;;;;;24.96;93.38;99437.97;5110603;28;20195;-56
2022/07/02 01:49:31;;;;;;;11.70;10.55;;;;;;;24.83;95.83;99436.53;5110535;28;20607;-55
2022/07/02 01:51:58;;;;;;;11.45;10.27;;;;;;;24.73;97.45;99435.63;5110685;28;20195;-55
2022/07/02 01:54:25;;;;;;;11.35;10.35;;;;;;;24.53;98.32;99437.41;5110820;28;20605;-56
2022/07/02 01:56:53;;;;;;;13.15;10.00;;;;;;;24.51;97.86;99432.22;5110544;28;20285;-57
2022/07/02 01:59:20;;;;;;;11.30;10.30;;;;;;;24.48;97.12;99435.16;5110497;28;20198;-56
2022/07/02 02:01:47;;;;;;;10.82;9.75;;;;;;;24.48;97.49;99427.22;5110294;28;20195;-55
2022/07/02 02:04:15;;;;;;;10.85;9.95;;;;;;;24.54;96.33;99445.22;5110462;28;20203;-55
2022/07/02 02:06:42;;;;;;;11.52;10.45;;;;;;;24.64;95.08;99434.66;5110477;28;20214;-55
2022/07/02 02:09:09;;;;;;;10.02;9.40;;;;;;;24.65;95.74;99441.63;5110355;28;20203;-56
2022/07/02 02:11:36;;;;;;;11.18;10.18;;;;;;;24.56;96.07;99431.84;5110303;28;20197;-56
2022/07/02 02:14:05;;;;;;;11.93;9.52;;;;;;;24.52;96.84;99433.06;5110274;28;20195;-56
2022/07/02 02:16:32;;;;;;;10.25;9.35;;;;;;;24.53;97.19;99430.28;5109960;28;20223;-55
2022/07/02 02:19:00;;;;;;;11.55;10.35;;;;;;;24.53;96.78;99432.94;5110262;28;20209;-57
2022/07/02 02:21:29;;;;;;;10.57;9.65;;;;;;;24.36;97.67;99433.59;5110449;28;20202;-55
2022/07/02 02:23:57;;;;;;;11.13;10.13;;;;;;;24.34;98.14;99435.53;5110511;28;20219;-56
2022/07/02 02:26:23;;;;;;;12.48;10.32;;;;;;;24.38;98.79;99439.56;5110048;28;20225;-56
2022/07/02 02:28:50;;;;;;;12.70;9.95;;;;;;;24.30;99.48;99435.91;5109843;28;20228;-56
2022/07/02 02:31:19;;;;;;;12.45;11.20;;;;;;;24.21;99.51;99438.38;5110038;28;20195;-56
2022/07/02 02:33:46;;;;;;;11.35;9.90;;;;;;;24.16;99.36;99431.75;5110181;28;20191;-56
2022/07/02 02:36:13;;;;;;;13.63;9.82;;;;;;;24.11;98.66;99432.19;5110064;28;20277;-56
2022/07/02 02:38:39;;;;;;;10.73;9.75;;;;;;;24.07;98.35;99440.53;5110076;28;20697;-55
2022/07/02 02:41:07;;;;;;;10.57;9.73;;;;;;;24.04;98.35;99449.56;5110062;28;20288;-56
2022/07/02 02:43:35;;;;;;;12.65;9.23;;;;;;;24.13;96.70;99446.16;5109797;28;20203;-56
2022/07/02 02:46:03;;;;;;;10.07;9.13;;;;;;;24.27;95.60;99439.66;5109810;28;20224;-56
2022/07/02 02:48:32;;;;;;;10.73;9.27;;;;;;;24.37;95.07;99453.84;5110261;28;20205;-55
2022/07/02 02:50:59;;;;;;;10.20;9.43;;;;;;;24.34;94.75;99448.78;5110127;28;20198;-55
2022/07/02 02:53:26;;;;;;;10.05;9.13;;;;;;;24.20;95.08;99449.94;5110443;28;20198;-54
2022/07/02 02:55:53;;;;;;;10.73;9.82;;;;;;;24.06;95.69;99455.59;5109920;28;20191;-55
2022/07/02 02:58:20;;;;;;;12.98;10.15;;;;;;;23.94;95.80;99435.41;5109667;28;20230;-55
2022/07/02 03:00:47;;;;;;;10.32;9.30;;;;;;;24.06;95.56;99450.28;5109817;28;20194;-56
2022/07/02 03:03:14;;;;;;;11.55;10.57;;;;;;;24.08;95.56;99448.34;5109808;28;20208;-55
2022/07/02 03:05:42;;;;;;;10.55;9.45;;;;;;;24.09;95.83;99451.84;5109495;28;25064;-55
2022/07/02 03:08:09;;;;;;;10.52;9.50;;;;;;;24.12;95.01;99463.03;5109076;28;20636;-56
2022/07/02 03:10:36;;;;;;;10.52;9.70;;;;;;;24.15;93.65;99451.34;5090915;28;20764;-57
2022/07/02 03:13:03;;;;;;;10.93;9.82;;;;;;;24.24;93.64;99463.81;5108243;28;20201;-57
2022/07/02 03:15:30;;;;;;;10.85;9.70;;;;;;;24.23;92.87;99470.09;5108119;28;20222;-56
2022/07/02 03:17:57;;;;;;;11.30;10.20;;;;;;;24.26;92.07;99467.19;5108441;28;20670;-56
2022/07/02 03:20:24;;;;;;;12.10;10.65;;;;;;;24.31;91.67;99470.28;5108439;28;20213;-56
2022/07/02 03:22:52;;;;;;;11.60;10.55;;;;;;;24.38;91.19;99475.91;5108192;28;20205;-56
2022/07/02 03:25:19;;;;;;;13.23;11.15;;;;;;;24.34;89.14;99459.41;5108035;28;20201;-56
2022/07/02 03:27:46;;;;;;;11.93;10.57;;;;;;;24.37;91.87;99471.56;5108390;28;20217;-55
2022/07/02 03:30:13;;;;;;;11.88;10.18;;;;;;;24.32;92.14;99471.13;5108473;28;20653;-56
2022/07/02 03:32:40;;;;;;;13.02;10.25;;;;;;;24.51;91.19;99481.81;5108068;28;20195;-57
2022/07/02 03:35:08;;;;;;;11.15;10.35;;;;;;;24.48;91.83;99476.78;5108190;28;20195;-57
2022/07/02 03:37:35;;;;;;;11.05;10.02;;;;;;;24.58;91.18;99478.50;5105599;28;20730;-57
2022/07/02 03:40:04;;;;;;;12.27;10.13;;;;;;;24.68;90.72;99490.97;5108548;28;20199;-56
2022/07/02 03:42:31;;;;;;;10.85;9.88;;;;;;;24.86;88.83;99497.31;5111967;28;20590;-56
2022/07/02 03:44:58;;;;;;;10.63;9.80;;;;;;;25.05;86.76;99491.25;5111784;28;20209;-56
2022/07/02 03:47:25;;;;;;;10.05;9.18;;;;;;;25.18;86.32;99505.94;5110125;27;20224;-56
2022/07/02 03:49:51;;;;;;;10.82;9.95;;;;;;;25.14;85.79;99503.72;5106109;28;20194;-59
2022/07/02 03:52:18;;;;;;;10.55;9.70;;;;;;;25.16;85.78;99499.94;5109454;28;20237;-59
2022/07/02 03:54:45;;;;;;;12.15;10.90;;;;;;;25.46;84.13;99500.81;5106697;28;20203;-55
2022/07/02 03:57:14;;;;;;;13.60;10.38;;;;;;;26.32;79.36;99506.09;5109303;28;20201;-55
2022/07/02 03:59:41;;;;;;;12.43;10.23;;;;;;;27.68;70.64;99509.72;5110200;28;20206;-55
2022/07/02 04:02:07;;;;;;;11.27;10.35;;;;;;;29.06;63.96;99515.13;5110860;28;20233;-55
2022/07/02 04:04:34;;;;;;;12.70;10.63;;;;;;;30.49;58.07;99523.63;5110736;28;20219;-59
2022/07/02 04:07:01;;;;;;;11.02;9.98;;;;;;;31.43;53.41;99523.59;5110584;28;20227;-59
2022/07/02 04:09:28;;;;;;;11.73;10.50;;;;;;;32.32;49.64;99528.28;5111737;28;20212;-58
2022/07/02 04:11:55;;;;;;;12.00;10.95;;;;;;;32.61;48.85;99530.19;5111653;28;20197;-58
2022/07/02 04:14:23;;;;;;;12.38;11.15;;;;;;;33.49;46.42;99532.78;5111719;28;20730;-58
2022/07/02 04:16:50;;;;;;;14.05;12.60;;;;;;;34.32;44.21;99535.81;5111332;28;20245;-58
2022/07/02 04:19:18;;;;;;;11.90;10.70;;;;;;;34.60;43.24;99540.16;5111534;28;20573;-58
2022/07/02 04:21:45;;;;;;;18.67;16.73;;;;;;;35.54;40.76;99534.19;5111816;28;20210;-58
2022/07/02 04:24:11;;;;;;;12.27;11.05;;;;;;;35.62;40.18;99536.69;5111780;28;20194;-55
2022/07/02 04:26:38;;;;;;;11.75;10.75;;;;;;;35.48;40.52;99535.81;5112010;28;20728;-56
2022/07/02 04:29:05;;;;;;;17.40;10.65;;;;;;;35.83;39.82;99549.22;5111973;28;20670;-55
2022/07/02 04:31:34;;;;;;;11.57;10.38;;;;;;;36.58;38.38;99548.78;5112328;28;20195;-55
2022/07/02 04:34:01;;;;;;;11.52;10.13;;;;;;;37.31;37.14;99544.00;5112030;28;20198;-55
2022/07/02 04:36:28;;;;;;;12.18;11.02;;;;;;;38.22;35.61;99549.03;5111882;28;20194;-55
2022/07/02 04:38:54;;;;;;;10.18;9.32;;;;;;;38.79;34.57;99542.44;5110814;28;20206;-55
2022/07/02 04:41:21;;;;;;;11.20;10.10;;;;;;;39.44;33.39;99548.13;5103369;28;20203;-55
2022/07/02 04:43:48;;;;;;;12.32;9.32;;;;;;;39.60;32.97;99549.38;5099121;28;20670;-56
2022/07/02 04:46:15;;;;;;;9.75;8.95;;;;;;;39.63;33.08;99554.31;5101486;28;20258;-56
2022/07/02 04:48:44;;;;;;;15.98;9.85;;;;;;;40.42;31.55;99544.09;5105536;28;20631;-56
2022/07/02 04:51:10;;;;;;;13.52;9.60;;;;;;;40.15;31.50;99544.53;5107339;28;20213;-56
2022/07/02 04:53:37;;;;;;;8.98;8.27;;;;;;;39.44;32.52;99547.31;5103464;28;20193;-56
2022/07/02 04:56:05;;;;;;;9.98;8.95;;;;;;;40.01;31.48;99553.16;5103947;28;20210;-56
2022/07/02 04:58:32;;;;;;;9.13;8.18;;;;;;;40.30;30.96;99554.97;5090413;28;20195;-56
2022/07/02 05:00:58;;;;;;;11.07;8.57;;;;;;;40.66;30.12;99558.50;5097229;28;20199;-57
2022/07/02 05:03:25;;;;;;;8.35;7.57;;;;;;;41.06;29.86;99561.31;5105541;28;20216;-57
2022/07/02 05:05:54;;;;;;;9.25;8.00;;;;;;;40.60;30.10;99565.75;5110860;28;20198;-57
2022/07/02 05:08:26;;;;;;;7.90;7.40;;;;;;;40.68;29.79;99550.94;5110168;28;20202;-57
2022/07/02 05:10:53;;;;;;;9.25;8.52;;;;;;;40.36;29.99;99553.22;5109614;28;20190;-56
2022/07/02 05:13:20;;;;;;;8.40;7.85;;;;;;;40.87;29.74;99557.91;5109072;28;20197;-56
2022/07/02 05:15:47;;;;;;;9.00;8.23;;;;;;;40.19;30.29;99561.19;5108723;28;20854;-56
2022/07/02 05:18:14;;;;;;;8.65;8.15;;;;;;;40.09;30.69;99550.06;5107346;28;20617;-57
2022/07/02 05:20:42;;;;;;;9.68;8.85;;;;;;;40.45;30.44;99549.06;5109584;28;20190;-58
2022/07/02 05:23:10;;;;;;;8.85;8.25;;;;;;;40.82;29.93;99549.63;5109292;28;20309;-57
2022/07/02 05:25:37;;;;;;;9.85;9.02;;;;;;;41.91;29.09;99550.41;5109521;28;20194;-57
2022/07/02 05:28:05;;;;;;;9.18;8.38;;;;;;;41.80;28.23;99560.31;5109511;28;20214;-56
2022/07/02 05:30:32;;;;;;;9.70;8.65;;;;;;;41.74;27.92;99561.31;5108773;28;20186;-58
2022/07/02 05:32:58;;;;;;;9.15;8.55;;;;;;;41.92;28.27;99562.97;5109032;28;20737;-57
2022/07/02 05:35:26;;;;;;;9.07;8.30;;;;;;;41.88;28.12;99556.34;5106119;28;20189;-57
2022/07/02 05:37:52;;;;;;;9.60;8.70;;;;;;;42.62;27.30;99559.75;5108267;28;20674;-58
2022/07/02 05:40:21;;;;;;;9.13;8.32;;;;;;;41.06;28.26;99555.84;5108378;28;20194;-58
2022/07/02 05:42:48;;;;;;;9.90;8.88;;;;;;;41.03;29.29;99561.78;5106275;28;20194;-57
2022/07/02 05:45:15;;;;;;;9.60;8.90;;;;;;;41.32;28.66;99553.41;5107926;28;20285;-57
2022/07/02 05:47:42;;;;;;;10.82;7.90;;;;;;;41.87;28.14;99562.91;5107866;28;20209;-57
2022/07/02 05:50:10;;;;;;;8.88;7.50;;;;;;;42.36;27.57;99553.06;5108559;28;20233;-56
2022/07/02 05:52:37;;;;;;;11.15;9.65;;;;;;;42.67;26.97;99554.34;5108349;28;20200;-56
2022/07/02 05:55:04;;;;;;;10.95;10.18;;;;;;;42.24;26.99;99558.59;5108170;28;20240;-57
2022/07/02 05:57:32;;;;;;;14.20;9.57;;;;;;;41.86;28.17;99561.25;5107798;28;20666;-57
2022/07/02 05:59:59;;;;;;;9.27;8.40;;;;;;;41.85;28.08;99559.59;5108036;28;20190;-57
2022/07/02 06:02:26;;;;;;;9.60;8.68;;;;;;;41.97;27.77;99554.91;5107174;28;20190;-57
2022/07/02 06:04:53;;;;;;;11.60;8.40;;;;;;;41.87;28.47;99549.25;5108460;28;20190;-60
2022/07/02 06:10:06;;;;;;;11.57;8.63;;;;;;;41.33;28.60;99567.84;5109597;28;20204;-59
2022/07/02 06:12:34;;;;;;;17.88;11.00;;;;;;;41.44;28.82;99572.44;5109042;28;20202;-57
2022/07/02 06:15:01;;;;;;;10.95;10.02;;;;;;;40.49;30.11;99561.13;5109653;28;20665;-57
2022/07/02 06:17:28;;;;;;;13.00;10.27;;;;;;;40.00;30.92;99562.38;5109593;28;20572;-58
2022/07/02 06:19:55;;;;;;;14.45;9.65;;;;;;;40.42;30.53;99554.97;5109322;28;20208;-58
2022/07/02 06:22:22;;;;;;;10.88;9.77;;;;;;;41.09;29.90;99567.06;5106802;28;20262;-57
2022/07/02 06:24:49;;;;;;;10.52;9.40;;;;;;;40.77;29.59;99563.97;5107709;28;20697;-58
2022/07/02 06:27:18;;;;;;;11.15;9.40;;;;;;;40.53;30.32;99560.41;5108796;28;20217;-57
2022/07/02 06:29:48;;;;;;;9.13;8.30;;;;;;;40.71;29.83;99566.81;5106318;28;20201;-57
2022/07/02 06:32:15;;;;;;;9.95;8.85;;;;;;;40.43;30.28;99553.91;5108532;28;20262;-57
2022/07/02 06:34:42;;;;;;;9.00;8.35;;;;;;;38.79;32.43;99553.28;5106926;28;20198;-57
2022/07/02 06:37:09;;;;;;;9.63;8.77;;;;;;;38.24;32.79;99560.50;5107767;28;20205;-57
2022/07/02 06:39:36;;;;;;;9.85;9.07;;;;;;;38.17;33.71;99551.56;5103181;28;20195;-57
2022/07/02 06:42:23;;;;;;;10.18;8.90;;;;;;;38.60;32.99;99550.81;5104739;28;20717;-57
2022/07/02 06:44:53;;;;;;;10.43;9.50;;;;;;;39.07;33.07;99555.47;5103072;28;20650;-56
2022/07/02 06:47:21;;;;;;;10.07;8.27;;;;;;;39.19;32.43;99558.25;5107428;28;20217;-57
2022/07/02 06:49:48;;;;;;;9.60;8.80;;;;;;;39.06;32.83;99555.69;5108338;28;20284;-57
2022/07/02 06:52:16;;;;;;;10.45;9.20;;;;;;;39.12;33.37;99557.53;5104418;28;20206;-57
2022/07/02 06:54:44;;;;;;;9.82;9.00;;;;;;;38.75;34.06;99554.78;5106090;28;20197;-57
2022/07/02 06:57:11;;;;;;;9.82;9.23;;;;;;;38.67;34.06;99546.94;5108952;28;20193;-56
2022/07/02 06:59:38;;;;;;;11.63;10.60;;;;;;;38.68;34.03;99550.50;5108438;28;20282;-56
2022/07/02 07:02:07;;;;;;;11.85;10.38;;;;;;;38.70;34.48;99546.50;5105797;28;20281;-56
2022/07/02 07:04:36;;;;;;;11.15;10.13;;;;;;;38.44;34.83;99533.19;5108807;28;20304;-56
2022/07/02 07:07:05;;;;;;;10.30;9.27;;;;;;;38.26;34.60;99554.84;5108567;28;20209;-56
2022/07/02 07:09:34;;;;;;;11.98;10.15;;;;;;;38.31;34.98;99549.59;5108725;28;20566;-56
2022/07/02 07:12:01;;;;;;;13.52;9.57;;;;;;;38.53;34.95;99553.56;5108573;28;20581;-56
2022/07/02 07:14:29;;;;;;;12.73;9.88;;;;;;;38.27;35.56;99562.75;5108261;28;20735;-56
2022/07/02 07:16:56;;;;;;;12.70;9.52;;;;;;;38.39;35.43;99557.44;5111688;28;20604;-57
2022/07/02 07:19:25;;;;;;;10.02;9.10;;;;;;;38.36;34.96;99563.31;5112227;28;20201;-57
2022/07/02 07:21:52;;;;;;;10.43;9.55;;;;;;;38.32;35.46;99557.50;5112758;28;20685;-57
2022/07/02 07:24:19;;;;;;;10.20;9.50;;;;;;;38.57;35.48;99562.94;5112391;28;20253;-57
2022/07/02 07:26:46;;;;;;;10.25;9.32;;;;;;;38.55;34.43;99567.75;5111778;28;20221;-57
2022/07/02 07:29:13;;;;;;;9.95;9.02;;;;;;;38.54;34.69;99571.50;5111419;28;20192;-57
2022/07/02 07:31:41;;;;;;;10.30;9.43;;;;;;;38.79;34.95;99564.16;5112239;28;20591;-57
2022/07/02 07:34:08;;;;;;;10.52;9.57;;;;;;;38.19;35.75;99559.50;5111903;28;20194;-56
2022/07/02 07:36:37;;;;;;;15.18;9.65;;;;;;;38.65;34.88;99562.63;5112004;28;20194;-56
2022/07/02 07:39:05;;;;;;;11.85;10.75;;;;;;;38.66;34.70;99564.28;5113329;28;20653;-57
2022/07/02 07:41:32;;;;;;;10.63;9.88;;;;;;;38.86;34.27;99559.47;5113101;28;20202;-57
2022/07/02 07:43:59;;;;;;;12.07;9.70;;;;;;;38.82;34.50;99555.56;5113134;28;20194;-56
2022/07/02 07:46:26;;;;;;;10.40;9.70;;;;;;;39.07;33.62;99555.47;5112982;28;20198;-56
2022/07/02 07:48:53;;;;;;;10.45;9.70;;;;;;;39.21;33.46;99558.84;5112684;28;20224;-57
2022/07/02 07:51:20;;;;;;;14.07;10.95;;;;;;;39.37;33.90;99560.13;5112852;28;20198;-56
2022/07/02 07:53:48;;;;;;;10.48;9.60;;;;;;;39.17;34.22;99560.38;5112849;28;20280;-56
2022/07/02 07:56:16;;;;;;;10.98;9.93;;;;;;;39.43;33.63;99567.38;5112712;28;20301;-56
2022/07/02 07:58:43;;;;;;;15.07;11.50;;;;;;;39.38;33.66;99559.91;5112778;28;20186;-56
2022/07/02 08:01:10;;;;;;;17.02;10.32;;;;;;;39.10;33.42;99565.06;5112705;28;20198;-56
2022/07/02 08:03:37;;;;;;;17.17;11.50;;;;;;;39.50;33.47;99566.25;5112846;28;20194;-57
2022/07/02 08:06:05;;;;;;;12.52;11.30;;;;;;;39.67;33.29;99573.72;5112732;28;20728;-56
2022/07/02 08:08:32;;;;;;;10.93;9.90;;;;;;;39.85;32.34;99573.66;5112585;28;20633;-56
2022/07/02 08:11:00;;;;;;;9.60;9.00;;;;;;;39.83;31.61;99578.50;5112406;28;20198;-56
2022/07/02 08:13:27;;;;;;;11.65;8.98;;;;;;;40.38;30.78;99572.84;5112847;28;20750;-56
2022/07/02 08:15:54;;;;;;;10.35;9.43;;;;;;;39.85;31.24;99579.09;5112325;28;20244;-56
2022/07/02 08:18:21;;;;;;;11.05;8.13;;;;;;;40.11;31.43;99577.88;5112315;28;20190;-56
2022/07/02 08:20:48;;;;;;;10.38;9.45;;;;;;;40.31;31.07;99575.66;5112340;28;20190;-57
2022/07/02 08:23:15;;;;;;;9.45;8.68;;;;;;;40.56;30.43;99576.25;5112185;28;20636;-56
2022/07/02 08:25:42;;;;;;;11.05;9.35;;;;;;;40.77;30.05;99583.00;5112056;28;20722;-56
2022/07/02 08:28:10;;;;;;;9.32;8.55;;;;;;;41.29;29.76;99580.31;5112315;28;20221;-56
2022/07/02 08:30:37;;;;;;;10.23;9.38;;;;;;;41.04;30.16;99582.50;5112362;28;20194;-56
2022/07/02 08:33:04;;;;;;;10.93;9.82;;;;;;;40.88;30.55;99584.06;5111258;28;20194;-56
2022/07/02 08:35:32;;;;;;;9.95;9.18;;;;;;;40.92;30.18;99580.63;5110231;28;20193;-56
2022/07/02 08:37:59;;;;;;;11.20;10.18;;;;;;;41.01;30.09;99586.53;5110808;28;20752;-56
2022/07/02 08:40:28;;;;;;;11.10;9.73;;;;;;;40.64;29.58;99583.22;5110835;28;20186;-56
2022/07/02 08:42:56;;;;;;;10.85;10.07;;;;;;;40.32;29.51;99579.22;5108096;28;20200;-57
2022/07/02 08:45:26;;;;;;;8.85;8.23;;;;;;;40.46;28.28;99591.53;5110525;28;20240;-57
2022/07/02 08:47:54;;;;;;;10.00;9.32;;;;;;;39.85;29.70;99584.53;5110389;28;20221;-55
2022/07/02 08:50:22;;;;;;;10.10;9.48;;;;;;;38.72;32.22;99585.06;5110211;28;20192;-56
2022/07/02 08:52:50;;;;;;;11.00;9.95;;;;;;;38.40;32.94;99572.66;5110473;28;20209;-57
2022/07/02 08:55:19;;;;;;;18.05;16.80;;;;;;;38.70;33.06;99575.53;5110767;28;20223;-55
2022/07/02 08:57:48;;;;;;;12.20;11.20;;;;;;;38.76;32.49;99580.88;5111402;28;20194;-56
2022/07/02 09:00:16;;;;;;;9.77;8.70;;;;;;;38.64;31.74;99585.38;5111705;28;20209;-57
2022/07/02 09:02:45;;;;;;;9.93;8.43;;;;;;;38.27;31.79;99581.72;5111483;28;20197;-57
2022/07/02 09:05:13;;;;;;;9.02;8.25;;;;;;;38.13;31.46;99583.75;5111494;28;20202;-57
2022/07/02 09:07:40;;;;;;;8.55;7.82;;;;;;;38.11;31.97;99576.88;5111369;28;20225;-57
2022/07/02 09:10:10;;;;;;;8.63;8.13;;;;;;;38.41;31.85;99566.16;5111700;28;20194;-57
2022/07/02 09:12:38;;;;;;;10.27;9.48;;;;;;;38.61;31.90;99577.69;5111553;28;20190;-55
2022/07/02 09:15:06;;;;;;;9.65;8.73;;;;;;;38.80;31.88;99568.53;5111241;28;20206;-55
2022/07/02 09:17:34;;;;;;;10.77;9.18;;;;;;;38.62;32.66;99573.09;5111185;28;20681;-56
2022/07/02 09:20:02;;;;;;;10.88;9.93;;;;;;;38.55;33.05;99567.75;5111180;28;20202;-56
2022/07/02 09:22:34;;;;;;;9.63;8.77;;;;;;;38.31;32.73;99569.41;5111356;28;20754;-57
2022/07/02 09:25:12;;;;;;;9.43;8.50;;;;;;;38.23;33.52;99558.84;5111343;28;20642;-56
2022/07/02 09:27:39;;;;;;;10.50;9.65;;;;;;;38.52;33.23;99560.00;5111141;28;20735;-55
2022/07/02 09:30:09;;;;;;;10.45;9.77;;;;;;;38.58;32.31;99561.88;5111131;28;20197;-57
2022/07/02 09:32:42;;;;;;;9.82;9.23;;;;;;;38.51;32.86;99561.88;5110862;28;20280;-57
2022/07/02 09:35:19;;;;;;;10.68;9.93;;;;;;;38.58;31.90;99566.47;5110984;28;20284;-56
2022/07/02 09:37:47;;;;;;;9.52;8.65;;;;;;;38.33;31.97;99559.16;5110078;28;20192;-57
2022/07/02 09:40:15;;;;;;;10.05;9.23;;;;;;;38.37;32.45;99556.84;5109688;28;20660;-56
2022/07/02 09:42:46;;;;;;;10.40;9.40;;;;;;;38.14;31.78;99555.59;5109604;28;20194;-57
2022/07/02 09:45:14;;;;;;;13.02;10.20;;;;;;;38.00;32.12;99551.28;5109247;28;20190;-57
2022/07/02 09:47:48;;;;;;;15.65;10.27;;;;;;;38.15;32.72;99549.09;5109557;28;20302;-55
2022/07/02 09:50:18;;;;;;;13.25;10.95;;;;;;;38.23;32.93;99552.59;5108927;28;20190;-57
2022/07/02 09:52:49;;;;;;;11.18;10.02;;;;;;;38.45;32.60;99538.38;5109645;28;20277;-57
2022/07/02 09:55:20;;;;;;;9.52;8.38;;;;;;;38.47;31.31;99549.03;5109382;28;20320;-57
2022/07/02 09:57:50;;;;;;;10.23;9.30;;;;;;;38.19;31.85;99545.94;5109055;28;20194;-58
2022/07/02 10:00:18;;;;;;;9.35;8.50;;;;;;;38.00;31.72;99559.41;5109173;28;20190;-57
2022/07/02 10:02:45;;;;;;;9.30;8.55;;;;;;;37.85;32.28;99542.63;5105877;28;20288;-57
2022/07/02 10:05:12;;;;;;;8.93;8.32;;;;;;;37.73;31.58;99547.94;5104007;28;20662;-57
2022/07/02 10:07:41;;;;;;;7.85;7.40;;;;;;;37.94;31.76;99544.03;5107931;28;20214;-57
2022/07/02 10:10:09;;;;;;;8.48;7.68;;;;;;;38.03;30.66;99547.31;5108542;28;20201;-57
2022/07/02 10:12:37;;;;;;;9.10;7.97;;;;;;;37.34;31.81;99537.34;5108929;28;20213;-57
2022/07/02 10:15:06;;;;;;;8.27;7.53;;;;;;;37.26;32.03;99540.25;5109252;28;20926;-57
2022/07/02 10:17:35;;;;;;;10.43;7.60;;;;;;;37.18;32.13;99543.22;5106273;28;20199;-57
2022/07/02 10:20:04;;;;;;;11.10;7.80;;;;;;;36.89;33.05;99547.28;5107993;28;20190;-57
2022/07/02 10:22:32;;;;;;;8.43;7.90;;;;;;;36.76;32.50;99547.31;5105585;28;20972;-57
2022/07/02 10:25:01;;;;;;;8.80;8.13;;;;;;;36.68;33.09;99546.44;5108346;28;20234;-57
2022/07/02 10:27:31;;;;;;;8.77;8.27;;;;;;;36.57;33.35;99543.59;5107816;28;20193;-57
2022/07/02 10:29:58;;;;;;;6.75;6.22;;;;;;;36.20;32.06;99537.78;5107812;28;20278;-56
2022/07/02 10:32:31;;;;;;;6.80;6.50;;;;;;;35.93;32.66;99536.13;5108959;28;20592;-56
2022/07/02 10:35:11;;;;;;;7.25;6.55;;;;;;;36.13;32.99;99539.66;5109444;28;20655;-56
2022/07/02 10:37:39;;;;;;;7.63;6.97;;;;;;;35.97;32.25;99540.91;5109356;28;20205;-57
2022/07/02 10:40:09;;;;;;;7.78;7.20;;;;;;;35.83;33.18;99538.41;5109311;28;20662;-57
2022/07/02 10:42:41;;;;;;;7.43;6.75;;;;;;;35.72;33.66;99537.13;5109153;28;20194;-57
2022/07/02 10:45:14;;;;;;;7.95;7.25;;;;;;;35.57;34.10;99533.75;5109239;28;20195;-57
2022/07/02 10:47:58;;;;;;;9.18;8.27;;;;;;;35.71;35.75;99521.94;5109214;28;20199;-58
2022/07/02 10:50:44;;;;;;;10.05;9.20;;;;;;;35.94;35.42;99522.41;5111978;28;20194;-58
2022/07/02 10:53:12;;;;;;;13.98;7.65;;;;;;;35.81;34.93;99517.00;5113350;28;20201;-56
2022/07/02 10:55:42;;;;;;;10.75;7.75;;;;;;;35.85;35.16;99518.25;5113177;28;20202;-56
2022/07/02 10:58:19;;;;;;;8.52;7.70;;;;;;;35.72;34.70;99512.81;5113601;28;20688;-56
2022/07/02 11:00:46;;;;;;;9.13;8.48;;;;;;;35.59;35.54;99502.00;5113239;28;20641;-56
2022/07/02 11:03:15;;;;;;;10.35;8.95;;;;;;;35.72;35.76;99510.09;5112685;28;20198;-55
2022/07/02 11:06:00;;;;;;;13.20;9.18;;;;;;;35.56;36.65;99503.22;5109921;28;20285;-56
2022/07/02 11:08:50;;;;;;;8.95;8.15;;;;;;;35.66;35.96;99510.94;5110516;28;20214;-55
2022/07/02 11:11:22;;;;;;;7.88;7.18;;;;;;;35.54;34.70;99515.28;5110577;28;20191;-56
2022/07/02 11:13:51;;;;;;;7.68;7.05;;;;;;;35.65;33.67;99518.22;5113571;28;20202;-56
2022/07/02 11:16:20;;;;;;;7.32;6.80;;;;;;;35.58;33.16;99505.72;5113393;28;20618;-57
2022/07/02 11:18:48;;;;;;;8.73;7.85;;;;;;;35.49;35.15;99504.25;5113687;28;20201;-56
2022/07/02 11:21:16;;;;;;;7.60;7.20;;;;;;;35.46;35.80;99507.34;5113611;28;20203;-57
2022/07/02 11:23:44;;;;;;;7.97;7.47;;;;;;;35.60;36.19;99499.09;5113579;28;20412;-57
2022/07/02 11:26:15;;;;;;;7.65;7.15;;;;;;;35.61;36.28;99500.75;5114037;28;20201;-57
2022/07/02 11:28:44;;;;;;;8.30;7.70;;;;;;;35.32;36.55;99505.69;5113391;28;20230;-57
2022/07/02 11:31:12;;;;;;;9.43;8.77;;;;;;;35.25;36.81;99495.69;5113580;28;20194;-56
2022/07/02 11:33:43;;;;;;;9.48;8.15;;;;;;;35.33;36.22;99501.97;5113468;28;20643;-56
2022/07/02 11:36:11;;;;;;;9.23;8.48;;;;;;;35.36;36.00;99504.22;5113522;28;20226;-57